QIQ weather

Rio Claro Airport
Rio Claro, São Paulo, Brazil

Public forecast

Using degrees Celsius for public forecast. Weather courtesy of forecast.io.

Closest aviation weather report (METAR) to Rio Claro Airport

Closest report is Campo Fontenelle Airport, 29.6 nm (54.8 km) NNE. Retrieved 2020/07/12 09:00 UTC (1 hour ago):

SBYS 120900Z 20002KT CAVOK 11/10 Q1017

Closest aviation forecast (TAF) to Rio Claro Airport

Closest forecast is Campo Fontenelle Airport, 29.6 nm (54.8 km) NNE. Retrieved 2020/07/12 06:06 UTC (4 hours ago):

TAF SBYS 120300Z 1206/1218 02003KT CAVOK TN13/1207Z TX30/1218Z RMK PDZ